createdAt,value
2023-01-07T00:01:41.608Z,98007.28
2023-01-07T00:04:08.372Z,98004.91
2023-01-07T00:06:35.215Z,98001.47
2023-01-07T00:09:01.957Z,98006.47
2023-01-07T00:11:28.685Z,98008.44
2023-01-07T00:13:55.537Z,98005.44
2023-01-07T00:16:22.352Z,98009.97
2023-01-07T00:18:49.145Z,98001.75
2023-01-07T00:21:15.766Z,97998.09
2023-01-07T00:23:42.406Z,98003.56
2023-01-07T00:26:09.064Z,98007.56
2023-01-07T00:28:35.780Z,97998.53
2023-01-07T00:31:02.475Z,98003.22
2023-01-07T00:33:29.191Z,97999.94
2023-01-07T00:35:55.886Z,98003.63
2023-01-07T00:38:22.522Z,97995.50
2023-01-07T00:40:49.202Z,98006.94
2023-01-07T00:43:15.882Z,98000.53
2023-01-07T00:45:42.557Z,97993.94
2023-01-07T00:48:09.192Z,97994.84
2023-01-07T00:50:35.899Z,97996.25
2023-01-07T00:53:02.594Z,98002.78
2023-01-07T00:55:29.264Z,98002.94
2023-01-07T00:57:56.799Z,98006.59
2023-01-07T01:00:23.709Z,98013.44
2023-01-07T01:02:50.545Z,98011.72
2023-01-07T01:05:17.279Z,98014.19
2023-01-07T01:07:43.936Z,98014.41
2023-01-07T01:10:10.585Z,98018.72
2023-01-07T01:12:37.304Z,98022.06
2023-01-07T01:15:04.006Z,98024.81
2023-01-07T01:17:30.789Z,98032.50
2023-01-07T01:19:57.461Z,98030.50
2023-01-07T01:22:24.297Z,98023.13
2023-01-07T01:24:50.952Z,98029.81
2023-01-07T01:27:17.588Z,98030.66
2023-01-07T01:29:44.303Z,98028.03
2023-01-07T01:32:10.979Z,98027.06
2023-01-07T01:34:37.671Z,98022.53
2023-01-07T01:37:04.309Z,98032.06
2023-01-07T01:39:30.991Z,98033.16
2023-01-07T01:41:57.610Z,98038.53
2023-01-07T01:44:24.287Z,98034.91
2023-01-07T01:46:50.998Z,98040.00
2023-01-07T01:49:17.682Z,98034.63
2023-01-07T01:51:44.382Z,98039.72
2023-01-07T01:54:11.067Z,98032.78
2023-01-07T01:56:37.709Z,98038.25
2023-01-07T01:59:04.342Z,98031.69
2023-01-07T02:01:31.274Z,98033.91
2023-01-07T02:03:58.069Z,98032.84
2023-01-07T02:06:24.764Z,98033.00
2023-01-07T02:08:51.492Z,98030.34
2023-01-07T02:11:18.176Z,98028.41
2023-01-07T02:13:44.962Z,98028.59
2023-01-07T02:16:11.745Z,98023.25
2023-01-07T02:18:38.499Z,98022.66
2023-01-07T02:21:05.421Z,98027.22
2023-01-07T02:23:32.106Z,98026.69
2023-01-07T02:25:58.973Z,98022.41
2023-01-07T02:28:25.883Z,98032.56
2023-01-07T02:30:52.590Z,98030.34
2023-01-07T02:33:19.314Z,98027.75
2023-01-07T02:35:45.953Z,98027.75
2023-01-07T02:38:12.615Z,98022.00
2023-01-07T02:40:39.232Z,98020.78
2023-01-07T02:43:05.932Z,98028.56
2023-01-07T02:45:32.625Z,98028.53
2023-01-07T02:47:59.357Z,98033.22
2023-01-07T02:50:26.065Z,98030.97
2023-01-07T02:52:52.957Z,98025.28
2023-01-07T02:55:19.712Z,98024.75
2023-01-07T02:57:46.509Z,98030.56
2023-01-07T03:00:13.179Z,98030.34
2023-01-07T03:02:39.856Z,98033.00
2023-01-07T03:05:06.565Z,98028.19
2023-01-07T03:07:33.242Z,98024.44
2023-01-07T03:09:59.911Z,98019.25
2023-01-07T03:12:26.627Z,98020.66
2023-01-07T03:14:53.287Z,98029.06
2023-01-07T03:17:19.947Z,98031.22
2023-01-07T03:19:46.561Z,98024.44
2023-01-07T03:22:13.223Z,98028.03
2023-01-07T03:24:39.846Z,98027.78
2023-01-07T03:27:06.493Z,98027.66
2023-01-07T03:29:33.423Z,98017.31
2023-01-07T03:32:00.109Z,98023.53
2023-01-07T03:34:26.816Z,98027.78
2023-01-07T03:36:53.475Z,98027.50
2023-01-07T03:39:20.242Z,98016.66
2023-01-07T03:41:46.939Z,98018.84
2023-01-07T03:44:13.615Z,98019.66
2023-01-07T03:46:40.255Z,98027.09
2023-01-07T03:49:07.589Z,98037.84
2023-01-07T03:51:34.285Z,98027.28
2023-01-07T03:54:00.960Z,98034.69
2023-01-07T03:56:27.614Z,98035.91
2023-01-07T03:58:54.317Z,98031.38
2023-01-07T04:01:21.143Z,98032.34
2023-01-07T04:03:47.979Z,98030.16
2023-01-07T04:06:14.640Z,98025.91
2023-01-07T04:08:41.338Z,98027.69
2023-01-07T04:11:08.028Z,98022.75
2023-01-07T04:13:34.901Z,98020.56
2023-01-07T04:16:01.575Z,98022.59
2023-01-07T04:18:28.237Z,98021.34
2023-01-07T04:20:54.896Z,98023.16
2023-01-07T04:23:21.575Z,98027.72
2023-01-07T04:25:48.230Z,98021.66
2023-01-07T04:28:14.883Z,98025.09
2023-01-07T04:30:41.663Z,98024.13
2023-01-07T04:33:08.524Z,98030.03
2023-01-07T04:35:35.240Z,98030.19
2023-01-07T04:38:02.145Z,98033.72
2023-01-07T04:40:28.819Z,98026.06
2023-01-07T04:42:55.492Z,98031.13
2023-01-07T04:45:22.112Z,98025.34
2023-01-07T04:47:48.764Z,98023.75
2023-01-07T04:50:15.450Z,98028.09
2023-01-07T04:52:42.356Z,98033.19
2023-01-07T04:55:09.084Z,98024.38
2023-01-07T04:57:35.758Z,98025.78
2023-01-07T05:00:02.493Z,98023.59
2023-01-07T05:02:29.182Z,98022.22
2023-01-07T05:04:55.843Z,98010.69
2023-01-07T05:07:22.489Z,98010.97
2023-01-07T05:09:49.124Z,98013.72
2023-01-07T05:12:15.818Z,98015.09
2023-01-07T05:14:42.507Z,98014.41
2023-01-07T05:17:09.297Z,98013.72
2023-01-07T05:19:35.948Z,98013.56
2023-01-07T05:22:02.604Z,98017.13
2023-01-07T05:24:29.233Z,98014.94
2023-01-07T05:26:55.867Z,98020.84
2023-01-07T05:29:22.593Z,98013.41
2023-01-07T05:31:49.275Z,98017.28
2023-01-07T05:34:15.916Z,98017.00
2023-01-07T05:36:42.573Z,98014.13
2023-01-07T05:39:09.239Z,98022.75
2023-01-07T05:41:36.148Z,98021.66
2023-01-07T05:44:02.782Z,98027.00
2023-01-07T05:46:29.620Z,98025.59
2023-01-07T05:48:56.289Z,98026.31
2023-01-07T05:51:22.933Z,98022.75
2023-01-07T05:53:49.577Z,98021.38
2023-01-07T05:56:16.252Z,98025.78
2023-01-07T05:58:42.905Z,98019.13
2023-01-07T06:01:09.671Z,98026.19
2023-01-07T06:03:36.449Z,98024.25
2023-01-07T06:06:03.172Z,98021.81
2023-01-07T06:08:29.858Z,98020.56
2023-01-07T06:10:56.524Z,98016.31
2023-01-07T06:13:23.261Z,98023.03
2023-01-07T06:15:50.059Z,98022.22
2023-01-07T06:18:16.771Z,98011.22
2023-01-07T06:20:43.540Z,98008.50
2023-01-07T06:23:10.239Z,98019.31
2023-01-07T06:25:36.882Z,98015.50
2023-01-07T06:28:03.589Z,98018.50
2023-01-07T06:30:30.243Z,98012.59
2023-01-07T06:32:56.955Z,98005.75
2023-01-07T06:35:23.606Z,98009.72
2023-01-07T06:37:50.272Z,98003.00
2023-01-07T06:40:17.016Z,98015.09
2023-01-07T06:42:43.953Z,98013.16
2023-01-07T06:45:10.863Z,98015.22
2023-01-07T06:47:37.606Z,98022.88
2023-01-07T06:50:04.291Z,98022.34
2023-01-07T06:52:30.990Z,98023.88
2023-01-07T06:54:57.638Z,98025.78
2023-01-07T06:57:24.489Z,98016.88
2023-01-07T06:59:51.184Z,98018.91
2023-01-07T07:02:17.921Z,98027.69
2023-01-07T07:04:44.824Z,98029.34
2023-01-07T07:07:11.488Z,98021.38
2023-01-07T07:09:38.195Z,98029.06
2023-01-07T07:12:04.897Z,98021.09
2023-01-07T07:14:31.561Z,98029.75
2023-01-07T07:16:58.355Z,98031.56
2023-01-07T07:19:25.039Z,98021.25
2023-01-07T07:21:51.681Z,98021.53
2023-01-07T07:24:18.667Z,98018.91
2023-01-07T07:26:45.634Z,98021.78
2023-01-07T07:29:12.371Z,98027.09
2023-01-07T07:31:39.151Z,98020.13
2023-01-07T07:34:05.820Z,98019.38
2023-01-07T07:36:32.576Z,98022.34
2023-01-07T07:38:59.244Z,98017.78
2023-01-07T07:41:25.933Z,98015.69
2023-01-07T07:43:52.605Z,98021.19
2023-01-07T07:46:19.356Z,98021.66
2023-01-07T07:48:46.097Z,98019.00
2023-01-07T07:51:12.765Z,98011.31
2023-01-07T07:53:39.524Z,98022.59
2023-01-07T07:56:06.252Z,98020.34
2023-01-07T07:58:32.888Z,98013.03
2023-01-07T08:00:59.545Z,98008.81
2023-01-07T08:03:26.526Z,98020.31
2023-01-07T08:05:53.231Z,98011.19
2023-01-07T08:08:19.948Z,98010.41
2023-01-07T08:10:46.594Z,98006.03
2023-01-07T08:13:13.288Z,98005.25
2023-01-07T08:15:40.189Z,98009.63
2023-01-07T08:18:06.832Z,98002.75
2023-01-07T08:20:33.781Z,98002.28
2023-01-07T08:23:00.414Z,97997.44
2023-01-07T08:25:27.090Z,98000.78
2023-01-07T08:27:53.889Z,98002.84
2023-01-07T08:30:20.602Z,98001.50
2023-01-07T08:32:47.255Z,97993.06
2023-01-07T08:35:14.088Z,97989.19
2023-01-07T08:37:40.787Z,97996.66
2023-01-07T08:40:07.516Z,97987.84
2023-01-07T08:42:34.135Z,97988.41
2023-01-07T08:45:00.883Z,97991.41
2023-01-07T08:47:27.548Z,97986.59
2023-01-07T08:49:54.252Z,97983.69
2023-01-07T08:52:21.126Z,97987.28
2023-01-07T08:54:48.250Z,97986.31
2023-01-07T08:57:14.973Z,97978.59
2023-01-07T08:59:41.635Z,97980.41
2023-01-07T09:02:08.554Z,97967.97
2023-01-07T09:04:35.257Z,97973.03
2023-01-07T09:07:02.158Z,97974.34
2023-01-07T09:09:28.809Z,97981.22
2023-01-07T09:11:55.443Z,97978.28
2023-01-07T09:14:22.060Z,97971.53
2023-01-07T09:19:32.859Z,97973.06
2023-01-07T09:21:59.548Z,97973.72
2023-01-07T09:24:26.210Z,97974.06
2023-01-07T09:26:52.872Z,97968.94
2023-01-07T09:29:19.578Z,97968.81
2023-01-07T09:31:46.283Z,97972.13
2023-01-07T09:34:13.022Z,97972.41
2023-01-07T09:36:39.695Z,97972.56
2023-01-07T09:39:06.338Z,97976.81
2023-01-07T09:41:32.998Z,97970.34
2023-01-07T09:44:01.823Z,97974.03
2023-01-07T09:46:28.962Z,97969.97
2023-01-07T09:48:55.751Z,97971.56
2023-01-07T09:51:22.429Z,97971.25
2023-01-07T09:53:49.086Z,97963.00
2023-01-07T09:56:15.765Z,97962.88
2023-01-07T09:58:42.457Z,97958.34
2023-01-07T10:01:09.280Z,97954.94
2023-01-07T10:03:36.052Z,97955.88
2023-01-07T10:06:03.000Z,97948.97
2023-01-07T10:08:32.149Z,97942.44
2023-01-07T10:10:59.097Z,97944.06
2023-01-07T10:13:25.783Z,97947.22
2023-01-07T10:15:52.448Z,97931.56
2023-01-07T10:18:19.106Z,97920.19
2023-01-07T10:20:45.803Z,97927.22
2023-01-07T10:23:12.520Z,97921.25
2023-01-07T10:25:39.449Z,97921.75
2023-01-07T10:28:06.115Z,97912.38
2023-01-07T10:30:32.737Z,97907.66
2023-01-07T10:32:59.421Z,97904.94
2023-01-07T10:35:26.115Z,97899.59
2023-01-07T10:37:52.811Z,97901.44
2023-01-07T10:40:19.774Z,97891.84
2023-01-07T10:42:46.501Z,97887.41
2023-01-07T10:45:13.252Z,97883.66
2023-01-07T10:47:40.076Z,97883.88
2023-01-07T10:50:06.787Z,97884.50
2023-01-07T10:52:33.453Z,97875.88
2023-01-07T10:55:00.244Z,97873.06
2023-01-07T10:57:26.874Z,97864.59
2023-01-07T10:59:53.573Z,97856.00
2023-01-07T11:02:20.540Z,97853.22
2023-01-07T11:04:47.545Z,97856.00
2023-01-07T11:07:14.295Z,97849.53
2023-01-07T11:09:40.993Z,97841.41
2023-01-07T11:12:07.679Z,97836.13
2023-01-07T11:14:34.423Z,97827.91
2023-01-07T11:17:01.050Z,97825.41
2023-01-07T11:19:27.947Z,97811.47
2023-01-07T11:21:54.747Z,97811.28
2023-01-07T11:24:21.597Z,97810.97
2023-01-07T11:26:48.258Z,97797.03
2023-01-07T11:29:14.955Z,97794.28
2023-01-07T11:31:41.690Z,97794.75
2023-01-07T11:34:08.466Z,97786.88
2023-01-07T11:36:35.175Z,97784.47
2023-01-07T11:39:01.817Z,97781.19
2023-01-07T11:41:28.558Z,97772.75
2023-01-07T11:43:55.251Z,97771.41
2023-01-07T11:46:23.893Z,97762.53
2023-01-07T11:48:51.866Z,97757.31
2023-01-07T11:51:18.506Z,97746.34
2023-01-07T11:53:45.229Z,97744.72
2023-01-07T11:56:11.926Z,97740.88
2023-01-07T11:58:38.890Z,97739.44
2023-01-07T12:01:05.722Z,97737.78
2023-01-07T12:03:32.524Z,97731.81
2023-01-07T12:05:59.220Z,97722.72
2023-01-07T12:08:25.872Z,97720.94
2023-01-07T12:10:52.564Z,97715.41
2023-01-07T12:13:19.327Z,97704.63
2023-01-07T12:15:46.072Z,97702.03
2023-01-07T12:18:12.756Z,97697.53
2023-01-07T12:20:39.428Z,97689.44
2023-01-07T12:23:06.325Z,97687.84
2023-01-07T12:25:33.763Z,97683.16
2023-01-07T12:28:01.131Z,97676.84
2023-01-07T12:30:27.809Z,97676.84
2023-01-07T12:32:54.490Z,97676.00
2023-01-07T12:35:21.221Z,97674.19
2023-01-07T12:37:47.866Z,97670.31
2023-01-07T12:40:14.595Z,97669.53
2023-01-07T12:42:41.524Z,97661.16
2023-01-07T12:45:08.354Z,97661.16
2023-01-07T12:47:35.354Z,97652.75
2023-01-07T12:50:02.120Z,97656.19
2023-01-07T12:52:28.742Z,97645.59
2023-01-07T12:54:55.415Z,97643.38
2023-01-07T12:57:22.104Z,97639.03
2023-01-07T12:59:48.759Z,97640.41
2023-01-07T13:02:15.560Z,97628.84
2023-01-07T13:04:42.469Z,97622.88
2023-01-07T13:07:09.204Z,97622.88
2023-01-07T13:09:35.911Z,97616.44
2023-01-07T13:12:02.598Z,97620.56
2023-01-07T13:14:29.255Z,97615.03
2023-01-07T13:16:55.905Z,97608.94
2023-01-07T13:19:22.599Z,97608.31
2023-01-07T13:21:49.285Z,97609.34
2023-01-07T13:24:19.177Z,97605.03
2023-01-07T13:26:46.013Z,97607.88
2023-01-07T13:29:12.729Z,97599.66
2023-01-07T13:31:41.892Z,97598.41
2023-01-07T13:34:09.500Z,97603.28
2023-01-07T13:36:36.151Z,97600.22
2023-01-07T13:39:02.815Z,97591.94
2023-01-07T13:41:29.522Z,97594.94
2023-01-07T13:43:56.374Z,97597.63
2023-01-07T13:46:23.283Z,97593.75
2023-01-07T13:48:50.026Z,97597.84
2023-01-07T13:51:16.723Z,97599.09
2023-01-07T13:53:43.389Z,97597.88
2023-01-07T13:56:10.107Z,97591.16
2023-01-07T13:58:37.069Z,97590.16
2023-01-07T14:01:03.902Z,97589.56
2023-01-07T14:03:30.607Z,97585.38
2023-01-07T14:05:57.338Z,97589.66
2023-01-07T14:08:23.988Z,97589.50
2023-01-07T14:10:50.663Z,97586.84
2023-01-07T14:13:17.333Z,97587.66
2023-01-07T14:15:44.076Z,97582.00
2023-01-07T14:18:10.789Z,97584.06
2023-01-07T14:20:37.467Z,97578.38
2023-01-07T14:23:04.213Z,97571.06
2023-01-07T14:25:30.884Z,97577.13
2023-01-07T14:27:57.559Z,97569.59
2023-01-07T14:30:24.204Z,97578.75
2023-01-07T14:32:50.861Z,97568.59
2023-01-07T14:35:17.522Z,97564.94
2023-01-07T14:37:44.157Z,97569.63
2023-01-07T14:40:10.809Z,97572.66
2023-01-07T14:42:37.535Z,97565.50
2023-01-07T14:45:04.229Z,97561.25
2023-01-07T14:47:30.951Z,97564.50
2023-01-07T14:49:57.699Z,97562.44
2023-01-07T14:52:24.403Z,97555.94
2023-01-07T14:54:51.188Z,97555.94
2023-01-07T14:57:17.893Z,97557.44
2023-01-07T14:59:44.593Z,97550.09
2023-01-07T15:02:11.311Z,97553.53
2023-01-07T15:04:38.036Z,97556.16
2023-01-07T15:07:04.736Z,97550.53
2023-01-07T15:09:31.511Z,97545.81
2023-01-07T15:11:58.228Z,97546.44
2023-01-07T15:14:24.918Z,97549.47
2023-01-07T15:16:51.582Z,97550.84
2023-01-07T15:19:18.273Z,97544.69
2023-01-07T15:21:44.947Z,97544.06
2023-01-07T15:24:11.679Z,97545.22
2023-01-07T15:26:38.384Z,97540.66
2023-01-07T15:29:05.062Z,97532.53
2023-01-07T15:31:31.720Z,97532.47
2023-01-07T15:33:58.484Z,97532.59
2023-01-07T15:36:25.159Z,97540.03
2023-01-07T15:38:51.841Z,97536.94
2023-01-07T15:41:18.482Z,97541.84
2023-01-07T15:43:45.152Z,97540.03
2023-01-07T15:46:11.860Z,97534.06
2023-01-07T15:48:38.833Z,97532.63
2023-01-07T15:51:05.520Z,97531.53
2023-01-07T15:53:32.333Z,97533.25
2023-01-07T15:55:59.340Z,97537.00
2023-01-07T15:58:26.070Z,97533.22
2023-01-07T16:00:52.760Z,97531.28
2023-01-07T16:03:19.433Z,97528.75
2023-01-07T16:05:46.174Z,97532.06
2023-01-07T16:08:12.793Z,97526.34
2023-01-07T16:10:39.439Z,97530.44
2023-01-07T16:13:06.082Z,97532.72
2023-01-07T16:15:32.886Z,97530.56
2023-01-07T16:17:59.521Z,97531.25
2023-01-07T16:20:28.059Z,97532.50
2023-01-07T16:22:55.899Z,97533.50
2023-01-07T16:25:22.603Z,97529.00
2023-01-07T16:27:49.437Z,97529.00
2023-01-07T16:30:16.121Z,97526.88
2023-01-07T16:32:42.894Z,97524.31
2023-01-07T16:35:09.581Z,97518.91
2023-01-07T16:37:37.735Z,97529.69
2023-01-07T16:40:04.589Z,97528.00
2023-01-07T16:42:31.347Z,97522.22
2023-01-07T16:44:57.984Z,97518.06
2023-01-07T16:47:24.673Z,97520.47
2023-01-07T16:49:51.572Z,97521.94
2023-01-07T16:52:18.189Z,97513.47
2023-01-07T16:54:44.885Z,97509.66
2023-01-07T16:57:11.522Z,97519.19
2023-01-07T16:59:38.249Z,97509.38
2023-01-07T17:02:04.894Z,97509.19
2023-01-07T17:04:31.543Z,97514.50
2023-01-07T17:06:58.757Z,97510.25
2023-01-07T17:09:25.567Z,97505.34
2023-01-07T17:11:52.515Z,97509.91
2023-01-07T17:14:19.164Z,97505.50
2023-01-07T17:16:45.862Z,97509.31
2023-01-07T17:19:12.630Z,97507.50
2023-01-07T17:21:39.259Z,97509.41
2023-01-07T17:24:05.957Z,97503.38
2023-01-07T17:26:40.777Z,97505.38
2023-01-07T17:29:07.865Z,97501.94
2023-01-07T17:31:34.510Z,97501.00
2023-01-07T17:34:01.225Z,97506.53
2023-01-07T17:36:28.491Z,97502.66
2023-01-07T17:38:55.124Z,97503.69
2023-01-07T17:41:21.778Z,97505.81
2023-01-07T17:43:48.567Z,97500.72
2023-01-07T17:46:15.307Z,97500.19
2023-01-07T17:48:42.028Z,97497.72
2023-01-07T17:51:08.748Z,97496.59
2023-01-07T17:53:35.413Z,97485.78
2023-01-07T17:56:02.298Z,97494.31
2023-01-07T17:58:28.989Z,97490.06
2023-01-07T18:00:55.744Z,97501.06
2023-01-07T18:03:22.488Z,97493.69
2023-01-07T18:05:49.117Z,97491.13
2023-01-07T18:08:15.818Z,97490.28
2023-01-07T18:10:42.526Z,97496.16
2023-01-07T18:13:09.336Z,97495.03
2023-01-07T18:15:36.007Z,97488.47
2023-01-07T18:18:02.646Z,97495.34
2023-01-07T18:20:29.325Z,97489.78
2023-01-07T18:22:55.968Z,97495.03
2023-01-07T18:25:22.687Z,97487.00
2023-01-07T18:27:49.534Z,97492.28
2023-01-07T18:30:16.230Z,97494.25
2023-01-07T18:32:43.187Z,97498.84
2023-01-07T18:35:09.976Z,97495.56
2023-01-07T18:37:36.777Z,97493.56
2023-01-07T18:40:03.688Z,97491.16
2023-01-07T18:42:30.408Z,97489.03
2023-01-07T18:44:57.094Z,97493.59
2023-01-07T18:47:23.719Z,97484.09
2023-01-07T18:49:50.431Z,97491.16
2023-01-07T18:52:17.239Z,97488.03
2023-01-07T18:54:44.170Z,97487.53
2023-01-07T18:57:10.914Z,97487.88
2023-01-07T18:59:37.728Z,97482.91
2023-01-07T19:02:04.948Z,97483.88
2023-01-07T19:04:31.620Z,97480.78
2023-01-07T19:06:58.342Z,97485.03
2023-01-07T19:09:25.065Z,97477.34
2023-01-07T19:11:51.692Z,97481.03
2023-01-07T19:14:18.437Z,97472.41
2023-01-07T19:16:45.317Z,97477.00
2023-01-07T19:19:11.993Z,97474.00
2023-01-07T19:21:38.791Z,97470.47
2023-01-07T19:24:05.610Z,97470.31
2023-01-07T19:26:32.477Z,97462.44
2023-01-07T19:28:59.142Z,97463.28
2023-01-07T19:31:25.787Z,97467.50
2023-01-07T19:33:52.587Z,97465.72
2023-01-07T19:36:19.292Z,97461.59
2023-01-07T19:38:45.993Z,97459.31
2023-01-07T19:41:12.685Z,97453.88
2023-01-07T19:43:39.368Z,97450.44
2023-01-07T19:46:08.278Z,97455.94
2023-01-07T19:48:35.018Z,97454.16
2023-01-07T19:51:01.644Z,97458.09
2023-01-07T19:53:28.643Z,97457.94
2023-01-07T19:55:55.336Z,97459.09
2023-01-07T19:58:22.058Z,97460.25
2023-01-07T20:00:48.772Z,97464.81
2023-01-07T20:03:15.418Z,97457.94
2023-01-07T20:05:42.047Z,97446.03
2023-01-07T20:08:08.704Z,97448.47
2023-01-07T20:10:35.344Z,97447.66
2023-01-07T20:13:02.047Z,97445.03
2023-01-07T20:15:28.851Z,97442.66
2023-01-07T20:17:55.546Z,97443.78
2023-01-07T20:20:22.211Z,97439.25
2023-01-07T20:22:48.882Z,97453.63
2023-01-07T20:25:15.585Z,97451.94
2023-01-07T20:27:42.375Z,97440.06
2023-01-07T20:30:09.025Z,97435.69
2023-01-07T20:32:35.742Z,97441.16
2023-01-07T20:35:02.488Z,97434.50
2023-01-07T20:37:29.217Z,97443.28
2023-01-07T20:39:56.034Z,97444.00
2023-01-07T20:42:22.736Z,97443.78
2023-01-07T20:44:49.412Z,97444.53
2023-01-07T20:47:16.108Z,97448.59
2023-01-07T20:49:43.107Z,97445.94
2023-01-07T20:52:09.793Z,97439.78
2023-01-07T20:54:36.792Z,97448.16
2023-01-07T20:57:03.477Z,97443.38
2023-01-07T20:59:30.184Z,97449.25
2023-01-07T21:01:57.514Z,97444.88
2023-01-07T21:04:24.330Z,97440.44
2023-01-07T21:06:51.127Z,97451.53
2023-01-07T21:09:18.001Z,97441.00
2023-01-07T21:11:44.709Z,97442.38
2023-01-07T21:14:11.391Z,97432.88
2023-01-07T21:16:38.186Z,97434.75
2023-01-07T21:19:04.982Z,97434.69
2023-01-07T21:21:31.745Z,97434.84
2023-01-07T21:23:58.400Z,97428.59
2023-01-07T21:26:25.210Z,97428.16
2023-01-07T21:28:51.894Z,97433.47
2023-01-07T21:31:18.891Z,97427.22
2023-01-07T21:33:45.617Z,97426.16
2023-01-07T21:36:12.290Z,97421.69
2023-01-07T21:38:38.986Z,97406.06
2023-01-07T21:41:05.687Z,97419.19
2023-01-07T21:43:33.821Z,97418.19
2023-01-07T21:46:00.662Z,97408.50
2023-01-07T21:48:27.375Z,97409.63
2023-01-07T21:50:54.049Z,97407.75
2023-01-07T21:53:20.916Z,97400.66
2023-01-07T21:55:47.585Z,97406.56
2023-01-07T21:58:14.299Z,97395.94
2023-01-07T22:00:41.134Z,97398.09
2023-01-07T22:03:07.783Z,97388.16
2023-01-07T22:05:34.431Z,97389.56
2023-01-07T22:08:01.233Z,97390.84
2023-01-07T22:10:27.912Z,97392.63
2023-01-07T22:12:54.651Z,97394.31
2023-01-07T22:15:21.320Z,97389.56
2023-01-07T22:17:47.992Z,97391.09
2023-01-07T22:20:14.655Z,97386.56
2023-01-07T22:22:41.504Z,97390.13
2023-01-07T22:25:08.158Z,97394.44
2023-01-07T22:27:34.841Z,97388.91
2023-01-07T22:30:01.507Z,97385.53
2023-01-07T22:32:28.161Z,97392.97
2023-01-07T22:34:54.826Z,97387.09
2023-01-07T22:37:21.600Z,97385.53
2023-01-07T22:39:48.265Z,97388.56
2023-01-07T22:42:14.991Z,97387.16
2023-01-07T22:44:41.656Z,97386.19
2023-01-07T22:47:08.359Z,97377.19
2023-01-07T22:49:35.176Z,97373.22
2023-01-07T22:52:01.885Z,97369.81
2023-01-07T22:54:28.767Z,97367.50
2023-01-07T22:56:55.439Z,97366.44
2023-01-07T22:59:22.107Z,97375.31
2023-01-07T23:01:48.780Z,97363.03
2023-01-07T23:04:15.509Z,97360.13
2023-01-07T23:06:42.378Z,97355.94
2023-01-07T23:09:09.063Z,97355.06
2023-01-07T23:11:35.838Z,97344.91
2023-01-07T23:14:02.528Z,97345.41
2023-01-07T23:16:29.346Z,97345.41
2023-01-07T23:18:56.049Z,97337.56
2023-01-07T23:21:22.743Z,97335.69
2023-01-07T23:23:49.438Z,97331.22
2023-01-07T23:26:16.149Z,97317.09
2023-01-07T23:28:42.825Z,97323.41
2023-01-07T23:31:09.663Z,97319.41
2023-01-07T23:33:36.346Z,97321.69
2023-01-07T23:36:03.006Z,97314.38
2023-01-07T23:38:29.714Z,97315.44
2023-01-07T23:40:56.391Z,97312.22
2023-01-07T23:43:23.052Z,97311.63
2023-01-07T23:45:49.890Z,97309.47
2023-01-07T23:48:16.597Z,97311.78
2023-01-07T23:50:43.247Z,97322.56
2023-01-07T23:53:09.881Z,97315.50
2023-01-07T23:55:36.521Z,97310.88
2023-01-07T23:58:03.205Z,97309.25
